Terminal Aerodrome Forecast
Issued by NWS

Home | Current Version | Previous Version | Text Only | Print | Product List | Glossary Off
Versions: 1 2 3 4 5 6 7 8 9 10 11 12 13 14 15 16 17 18

960
FTUS43 KOAX 211503 AAA
TAFCDR
TAF AMD
KCDR 211503Z 2115/2212 25008KT 1SM BR OVC012
      TEMPO 2115/2117 1/4SM FZFG VV002
     FM211700 34005KT P6SM BKN200
     FM221000 28005KT P6SM OVC015=

USA.gov is the U.S. government's official web portal to all federal, state and local government web resources and services.